sensor_id;sensor_type;location;lat;lon;timestamp;P1;durP1;ratioP1;P2;durP2;ratioP2
39050;SDS011;24805;55.852;37.644;2022-07-05T00:00:23;14.65;;;10.05;;
39050;SDS011;24805;55.852;37.644;2022-07-05T00:05:25;16.15;;;10.20;;
39050;SDS011;24805;55.852;37.644;2022-07-05T00:10:27;12.40;;;9.77;;
39050;SDS011;24805;55.852;37.644;2022-07-05T00:15:30;11.95;;;9.13;;
39050;SDS011;24805;55.852;37.644;2022-07-05T00:20:33;14.52;;;10.38;;
39050;SDS011;24805;55.852;37.644;2022-07-05T00:25:35;11.05;;;9.52;;
39050;SDS011;24805;55.852;37.644;2022-07-05T00:30:38;17.83;;;9.70;;
39050;SDS011;24805;55.852;37.644;2022-07-05T00:35:40;13.40;;;9.75;;
39050;SDS011;24805;55.852;37.644;2022-07-05T00:40:42;11.23;;;9.88;;
39050;SDS011;24805;55.852;37.644;2022-07-05T00:45:45;13.60;;;9.18;;
39050;SDS011;24805;55.852;37.644;2022-07-05T00:50:47;12.23;;;9.55;;
39050;SDS011;24805;55.852;37.644;2022-07-05T00:55:52;16.05;;;10.45;;
39050;SDS011;24805;55.852;37.644;2022-07-05T01:00:54;14.35;;;11.05;;
39050;SDS011;24805;55.852;37.644;2022-07-05T01:05:56;15.35;;;10.90;;
39050;SDS011;24805;55.852;37.644;2022-07-05T01:10:59;15.23;;;10.57;;
39050;SDS011;24805;55.852;37.644;2022-07-05T01:16:02;13.95;;;10.50;;
39050;SDS011;24805;55.852;37.644;2022-07-05T01:21:05;15.73;;;11.07;;
39050;SDS011;24805;55.852;37.644;2022-07-05T01:26:07;16.63;;;11.68;;
39050;SDS011;24805;55.852;37.644;2022-07-05T01:31:09;18.42;;;10.80;;
39050;SDS011;24805;55.852;37.644;2022-07-05T01:36:13;14.60;;;10.40;;
39050;SDS011;24805;55.852;37.644;2022-07-05T01:41:15;16.85;;;11.25;;
39050;SDS011;24805;55.852;37.644;2022-07-05T01:46:18;13.65;;;11.05;;
39050;SDS011;24805;55.852;37.644;2022-07-05T01:51:24;16.88;;;11.40;;
39050;SDS011;24805;55.852;37.644;2022-07-05T01:56:31;14.30;;;11.10;;
39050;SDS011;24805;55.852;37.644;2022-07-05T02:01:34;16.27;;;11.15;;
39050;SDS011;24805;55.852;37.644;2022-07-05T02:06:39;17.48;;;10.95;;
39050;SDS011;24805;55.852;37.644;2022-07-05T02:11:42;14.77;;;11.65;;
39050;SDS011;24805;55.852;37.644;2022-07-05T02:16:45;14.48;;;11.35;;
39050;SDS011;24805;55.852;37.644;2022-07-05T02:21:48;20.63;;;11.60;;
39050;SDS011;24805;55.852;37.644;2022-07-05T02:26:53;15.07;;;10.80;;
39050;SDS011;24805;55.852;37.644;2022-07-05T02:31:56;18.70;;;10.43;;
39050;SDS011;24805;55.852;37.644;2022-07-05T02:37:00;14.57;;;11.18;;
39050;SDS011;24805;55.852;37.644;2022-07-05T02:42:03;18.90;;;11.18;;
39050;SDS011;24805;55.852;37.644;2022-07-05T02:47:06;15.27;;;12.68;;
39050;SDS011;24805;55.852;37.644;2022-07-05T02:52:09;24.77;;;13.35;;
39050;SDS011;24805;55.852;37.644;2022-07-05T02:57:12;17.67;;;12.32;;
39050;SDS011;24805;55.852;37.644;2022-07-05T03:02:14;18.50;;;12.20;;
39050;SDS011;24805;55.852;37.644;2022-07-05T03:07:17;16.73;;;11.80;;
39050;SDS011;24805;55.852;37.644;2022-07-05T03:12:20;18.73;;;11.82;;
39050;SDS011;24805;55.852;37.644;2022-07-05T03:17:23;17.13;;;11.73;;
39050;SDS011;24805;55.852;37.644;2022-07-05T03:22:26;17.85;;;11.63;;
39050;SDS011;24805;55.852;37.644;2022-07-05T03:27:29;15.32;;;11.50;;
39050;SDS011;24805;55.852;37.644;2022-07-05T03:32:33;13.85;;;10.82;;
39050;SDS011;24805;55.852;37.644;2022-07-05T03:37:35;14.48;;;11.57;;
39050;SDS011;24805;55.852;37.644;2022-07-05T03:42:38;11.75;;;10.50;;
39050;SDS011;24805;55.852;37.644;2022-07-05T03:47:40;15.88;;;11.50;;
39050;SDS011;24805;55.852;37.644;2022-07-05T03:52:45;12.23;;;10.82;;
39050;SDS011;24805;55.852;37.644;2022-07-05T03:57:48;14.38;;;10.38;;
39050;SDS011;24805;55.852;37.644;2022-07-05T04:02:52;13.98;;;10.70;;
39050;SDS011;24805;55.852;37.644;2022-07-05T04:07:55;12.75;;;9.07;;
39050;SDS011;24805;55.852;37.644;2022-07-05T04:13:05;10.20;;;9.13;;
39050;SDS011;24805;55.852;37.644;2022-07-05T04:18:08;11.60;;;8.77;;
39050;SDS011;24805;55.852;37.644;2022-07-05T04:23:13;12.15;;;9.55;;
39050;SDS011;24805;55.852;37.644;2022-07-05T04:28:16;11.10;;;9.38;;
39050;SDS011;24805;55.852;37.644;2022-07-05T04:33:21;10.43;;;8.43;;
39050;SDS011;24805;55.852;37.644;2022-07-05T04:38:27;13.13;;;9.38;;
39050;SDS011;24805;55.852;37.644;2022-07-05T04:43:32;13.45;;;8.45;;
39050;SDS011;24805;55.852;37.644;2022-07-05T04:48:38;11.07;;;7.35;;
39050;SDS011;24805;55.852;37.644;2022-07-05T04:53:43;15.40;;;8.02;;
39050;SDS011;24805;55.852;37.644;2022-07-05T04:58:45;11.63;;;7.25;;
39050;SDS011;24805;55.852;37.644;2022-07-05T05:03:47;11.27;;;7.30;;
39050;SDS011;24805;55.852;37.644;2022-07-05T05:08:49;14.35;;;6.95;;
39050;SDS011;24805;55.852;37.644;2022-07-05T05:13:51;10.18;;;7.13;;
39050;SDS011;24805;55.852;37.644;2022-07-05T05:18:55;8.30;;;7.13;;
39050;SDS011;24805;55.852;37.644;2022-07-05T05:23:58;9.95;;;6.78;;
39050;SDS011;24805;55.852;37.644;2022-07-05T05:29:00;10.27;;;7.07;;
39050;SDS011;24805;55.852;37.644;2022-07-05T05:34:02;10.80;;;6.63;;
39050;SDS011;24805;55.852;37.644;2022-07-05T05:39:05;9.95;;;6.63;;
39050;SDS011;24805;55.852;37.644;2022-07-05T05:44:07;11.55;;;6.30;;
39050;SDS011;24805;55.852;37.644;2022-07-05T05:49:11;10.35;;;6.05;;
39050;SDS011;24805;55.852;37.644;2022-07-05T05:54:13;9.23;;;6.13;;
39050;SDS011;24805;55.852;37.644;2022-07-05T05:59:15;10.75;;;5.90;;
39050;SDS011;24805;55.852;37.644;2022-07-05T06:04:17;9.50;;;6.00;;
39050;SDS011;24805;55.852;37.644;2022-07-05T06:09:20;7.05;;;6.05;;
39050;SDS011;24805;55.852;37.644;2022-07-05T06:14:22;11.43;;;6.47;;
39050;SDS011;24805;55.852;37.644;2022-07-05T06:19:24;8.13;;;5.43;;
39050;SDS011;24805;55.852;37.644;2022-07-05T06:24:26;9.35;;;5.57;;
39050;SDS011;24805;55.852;37.644;2022-07-05T06:29:28;6.70;;;4.95;;
39050;SDS011;24805;55.852;37.644;2022-07-05T06:34:30;6.93;;;4.93;;
39050;SDS011;24805;55.852;37.644;2022-07-05T06:39:38;7.47;;;5.60;;
39050;SDS011;24805;55.852;37.644;2022-07-05T06:44:40;12.85;;;5.35;;
39050;SDS011;24805;55.852;37.644;2022-07-05T06:49:43;8.90;;;4.57;;
39050;SDS011;24805;55.852;37.644;2022-07-05T06:54:46;5.38;;;4.10;;
39050;SDS011;24805;55.852;37.644;2022-07-05T06:59:49;7.40;;;4.00;;
39050;SDS011;24805;55.852;37.644;2022-07-05T07:05:01;4.30;;;3.95;;
39050;SDS011;24805;55.852;37.644;2022-07-05T07:10:13;9.48;;;4.57;;
39050;SDS011;24805;55.852;37.644;2022-07-05T07:15:15;6.15;;;4.43;;
39050;SDS011;24805;55.852;37.644;2022-07-05T07:20:18;7.00;;;4.50;;
39050;SDS011;24805;55.852;37.644;2022-07-05T07:25:20;7.40;;;4.43;;
39050;SDS011;24805;55.852;37.644;2022-07-05T07:30:25;5.22;;;4.25;;
39050;SDS011;24805;55.852;37.644;2022-07-05T07:35:29;4.47;;;3.92;;
39050;SDS011;24805;55.852;37.644;2022-07-05T07:40:31;5.80;;;4.57;;
39050;SDS011;24805;55.852;37.644;2022-07-05T07:45:33;8.02;;;4.20;;
39050;SDS011;24805;55.852;37.644;2022-07-05T07:50:35;5.70;;;3.80;;
39050;SDS011;24805;55.852;37.644;2022-07-05T07:55:37;7.38;;;4.22;;
39050;SDS011;24805;55.852;37.644;2022-07-05T08:00:41;6.78;;;4.32;;
39050;SDS011;24805;55.852;37.644;2022-07-05T08:05:43;9.20;;;4.07;;
39050;SDS011;24805;55.852;37.644;2022-07-05T08:10:45;4.57;;;4.10;;
39050;SDS011;24805;55.852;37.644;2022-07-05T08:15:48;6.43;;;4.13;;
39050;SDS011;24805;55.852;37.644;2022-07-05T08:20:50;6.97;;;4.47;;
39050;SDS011;24805;55.852;37.644;2022-07-05T08:26:11;5.60;;;4.95;;
39050;SDS011;24805;55.852;37.644;2022-07-05T08:31:13;6.32;;;5.72;;
39050;SDS011;24805;55.852;37.644;2022-07-05T08:36:15;5.78;;;5.25;;
39050;SDS011;24805;55.852;37.644;2022-07-05T08:41:19;6.40;;;5.72;;
39050;SDS011;24805;55.852;37.644;2022-07-05T08:46:22;9.43;;;5.53;;
39050;SDS011;24805;55.852;37.644;2022-07-05T08:51:28;7.55;;;5.65;;
39050;SDS011;24805;55.852;37.644;2022-07-05T08:56:30;13.40;;;4.93;;
39050;SDS011;24805;55.852;37.644;2022-07-05T09:01:53;7.18;;;5.97;;
39050;SDS011;24805;55.852;37.644;2022-07-05T09:06:58;6.75;;;5.18;;
39050;SDS011;24805;55.852;37.644;2022-07-05T09:12:06;10.10;;;5.43;;
39050;SDS011;24805;55.852;37.644;2022-07-05T09:17:27;6.72;;;4.18;;
39050;SDS011;24805;55.852;37.644;2022-07-05T09:22:41;5.38;;;4.80;;
39050;SDS011;24805;55.852;37.644;2022-07-05T09:33:09;7.55;;;5.05;;
39050;SDS011;24805;55.852;37.644;2022-07-05T09:38:19;10.40;;;5.45;;
39050;SDS011;24805;55.852;37.644;2022-07-05T09:48:26;6.13;;;5.38;;
39050;SDS011;24805;55.852;37.644;2022-07-05T09:53:48;9.13;;;6.03;;
39050;SDS011;24805;55.852;37.644;2022-07-05T09:59:17;10.10;;;6.70;;
39050;SDS011;24805;55.852;37.644;2022-07-05T10:04:22;10.93;;;6.55;;
39050;SDS011;24805;55.852;37.644;2022-07-05T10:09:25;9.40;;;6.80;;
39050;SDS011;24805;55.852;37.644;2022-07-05T10:14:28;7.63;;;6.55;;
39050;SDS011;24805;55.852;37.644;2022-07-05T10:19:33;11.48;;;7.25;;
39050;SDS011;24805;55.852;37.644;2022-07-05T10:24:40;9.52;;;6.93;;
39050;SDS011;24805;55.852;37.644;2022-07-05T10:29:44;9.63;;;8.27;;
39050;SDS011;24805;55.852;37.644;2022-07-05T10:34:47;9.60;;;7.65;;
39050;SDS011;24805;55.852;37.644;2022-07-05T10:39:56;11.40;;;8.30;;
39050;SDS011;24805;55.852;37.644;2022-07-05T10:45:00;9.18;;;7.43;;
39050;SDS011;24805;55.852;37.644;2022-07-05T10:50:04;12.65;;;8.23;;
39050;SDS011;24805;55.852;37.644;2022-07-05T11:00:18;13.32;;;9.10;;
39050;SDS011;24805;55.852;37.644;2022-07-05T11:05:24;14.85;;;8.85;;
39050;SDS011;24805;55.852;37.644;2022-07-05T11:10:28;9.65;;;7.53;;
39050;SDS011;24805;55.852;37.644;2022-07-05T11:15:33;8.23;;;7.03;;
39050;SDS011;24805;55.852;37.644;2022-07-05T11:20:35;11.55;;;7.55;;
39050;SDS011;24805;55.852;37.644;2022-07-05T11:25:39;17.77;;;13.55;;
39050;SDS011;24805;55.852;37.644;2022-07-05T11:30:52;9.65;;;8.55;;
39050;SDS011;24805;55.852;37.644;2022-07-05T11:35:56;7.53;;;6.80;;
39050;SDS011;24805;55.852;37.644;2022-07-05T11:41:12;8.25;;;6.63;;
39050;SDS011;24805;55.852;37.644;2022-07-05T11:46:17;6.70;;;6.05;;
39050;SDS011;24805;55.852;37.644;2022-07-05T11:51:40;6.03;;;5.22;;
39050;SDS011;24805;55.852;37.644;2022-07-05T11:56:42;5.25;;;4.60;;
39050;SDS011;24805;55.852;37.644;2022-07-05T12:01:44;4.72;;;3.92;;
39050;SDS011;24805;55.852;37.644;2022-07-05T12:06:47;5.90;;;4.30;;
39050;SDS011;24805;55.852;37.644;2022-07-05T12:11:54;9.30;;;4.43;;
39050;SDS011;24805;55.852;37.644;2022-07-05T12:17:19;7.03;;;4.30;;
39050;SDS011;24805;55.852;37.644;2022-07-05T12:22:28;4.57;;;3.58;;
39050;SDS011;24805;55.852;37.644;2022-07-05T12:27:31;4.50;;;3.88;;
39050;SDS011;24805;55.852;37.644;2022-07-05T12:38:05;5.72;;;4.57;;
39050;SDS011;24805;55.852;37.644;2022-07-05T12:43:12;5.07;;;4.45;;
39050;SDS011;24805;55.852;37.644;2022-07-05T12:48:18;12.63;;;10.15;;
39050;SDS011;24805;55.852;37.644;2022-07-05T12:53:33;13.18;;;6.95;;
39050;SDS011;24805;55.852;37.644;2022-07-05T12:58:54;11.30;;;6.97;;
39050;SDS011;24805;55.852;37.644;2022-07-05T13:04:05;16.67;;;13.90;;
39050;SDS011;24805;55.852;37.644;2022-07-05T13:09:14;12.50;;;7.93;;
39050;SDS011;24805;55.852;37.644;2022-07-05T13:14:18;12.45;;;9.07;;
39050;SDS011;24805;55.852;37.644;2022-07-05T13:19:21;10.65;;;9.50;;
39050;SDS011;24805;55.852;37.644;2022-07-05T13:24:23;14.38;;;10.98;;
39050;SDS011;24805;55.852;37.644;2022-07-05T13:29:26;16.88;;;12.15;;
39050;SDS011;24805;55.852;37.644;2022-07-05T13:34:28;18.20;;;15.15;;
39050;SDS011;24805;55.852;37.644;2022-07-05T13:39:30;22.17;;;14.40;;
39050;SDS011;24805;55.852;37.644;2022-07-05T13:44:32;16.30;;;12.73;;
39050;SDS011;24805;55.852;37.644;2022-07-05T13:49:35;15.48;;;10.23;;
39050;SDS011;24805;55.852;37.644;2022-07-05T13:54:37;13.18;;;6.57;;
39050;SDS011;24805;55.852;37.644;2022-07-05T13:59:41;6.80;;;5.63;;
39050;SDS011;24805;55.852;37.644;2022-07-05T14:04:43;7.70;;;4.68;;
39050;SDS011;24805;55.852;37.644;2022-07-05T14:09:45;9.70;;;6.90;;
39050;SDS011;24805;55.852;37.644;2022-07-05T14:14:47;8.57;;;6.72;;
39050;SDS011;24805;55.852;37.644;2022-07-05T14:19:50;14.25;;;8.38;;
39050;SDS011;24805;55.852;37.644;2022-07-05T14:24:52;9.27;;;5.45;;
39050;SDS011;24805;55.852;37.644;2022-07-05T14:29:54;12.48;;;5.90;;
39050;SDS011;24805;55.852;37.644;2022-07-05T14:34:56;13.30;;;6.45;;
39050;SDS011;24805;55.852;37.644;2022-07-05T14:39:59;12.43;;;6.00;;
39050;SDS011;24805;55.852;37.644;2022-07-05T14:45:02;9.57;;;6.65;;
39050;SDS011;24805;55.852;37.644;2022-07-05T14:50:04;13.85;;;7.55;;
39050;SDS011;24805;55.852;37.644;2022-07-05T14:55:07;16.45;;;7.57;;
39050;SDS011;24805;55.852;37.644;2022-07-05T15:00:12;29.45;;;9.38;;
39050;SDS011;24805;55.852;37.644;2022-07-05T15:05:16;17.10;;;8.20;;
39050;SDS011;24805;55.852;37.644;2022-07-05T15:10:18;17.80;;;9.60;;
39050;SDS011;24805;55.852;37.644;2022-07-05T15:15:20;17.70;;;9.93;;
39050;SDS011;24805;55.852;37.644;2022-07-05T15:20:23;21.52;;;16.20;;
39050;SDS011;24805;55.852;37.644;2022-07-05T15:25:25;17.67;;;11.90;;
39050;SDS011;24805;55.852;37.644;2022-07-05T15:30:28;22.67;;;11.82;;
39050;SDS011;24805;55.852;37.644;2022-07-05T15:35:30;18.10;;;11.80;;
39050;SDS011;24805;55.852;37.644;2022-07-05T15:40:32;18.85;;;11.25;;
39050;SDS011;24805;55.852;37.644;2022-07-05T15:45:34;19.50;;;12.23;;
39050;SDS011;24805;55.852;37.644;2022-07-05T15:50:36;17.67;;;12.43;;
39050;SDS011;24805;55.852;37.644;2022-07-05T15:55:39;17.52;;;11.82;;
39050;SDS011;24805;55.852;37.644;2022-07-05T16:00:41;12.75;;;10.05;;
39050;SDS011;24805;55.852;37.644;2022-07-05T16:05:44;14.50;;;10.55;;
39050;SDS011;24805;55.852;37.644;2022-07-05T16:10:47;13.13;;;10.30;;
39050;SDS011;24805;55.852;37.644;2022-07-05T16:15:50;14.85;;;10.50;;
39050;SDS011;24805;55.852;37.644;2022-07-05T16:21:11;12.80;;;9.45;;
39050;SDS011;24805;55.852;37.644;2022-07-05T16:26:16;18.25;;;10.65;;
39050;SDS011;24805;55.852;37.644;2022-07-05T16:31:19;13.90;;;9.90;;
39050;SDS011;24805;55.852;37.644;2022-07-05T16:36:22;18.92;;;11.95;;
39050;SDS011;24805;55.852;37.644;2022-07-05T16:41:25;19.40;;;11.82;;
39050;SDS011;24805;55.852;37.644;2022-07-05T16:46:27;17.45;;;11.45;;
39050;SDS011;24805;55.852;37.644;2022-07-05T16:51:30;14.82;;;11.52;;
39050;SDS011;24805;55.852;37.644;2022-07-05T16:56:32;16.20;;;12.13;;
39050;SDS011;24805;55.852;37.644;2022-07-05T17:01:34;16.20;;;10.88;;
39050;SDS011;24805;55.852;37.644;2022-07-05T17:06:36;41.38;;;33.33;;
39050;SDS011;24805;55.852;37.644;2022-07-05T17:11:38;17.15;;;13.95;;
39050;SDS011;24805;55.852;37.644;2022-07-05T17:16:41;17.20;;;13.23;;
39050;SDS011;24805;55.852;37.644;2022-07-05T17:21:43;17.52;;;12.40;;
39050;SDS011;24805;55.852;37.644;2022-07-05T17:26:46;13.50;;;11.35;;
39050;SDS011;24805;55.852;37.644;2022-07-05T17:31:48;14.23;;;12.32;;
39050;SDS011;24805;55.852;37.644;2022-07-05T17:36:51;17.38;;;13.40;;
39050;SDS011;24805;55.852;37.644;2022-07-05T17:41:53;14.57;;;12.35;;
39050;SDS011;24805;55.852;37.644;2022-07-05T17:46:56;14.00;;;12.20;;
39050;SDS011;24805;55.852;37.644;2022-07-05T17:51:58;16.70;;;11.70;;
39050;SDS011;24805;55.852;37.644;2022-07-05T17:57:15;14.02;;;11.77;;
39050;SDS011;24805;55.852;37.644;2022-07-05T18:02:18;13.38;;;11.35;;
39050;SDS011;24805;55.852;37.644;2022-07-05T18:07:20;15.98;;;12.43;;
39050;SDS011;24805;55.852;37.644;2022-07-05T18:12:23;15.00;;;11.10;;
39050;SDS011;24805;55.852;37.644;2022-07-05T18:17:27;12.75;;;11.35;;
39050;SDS011;24805;55.852;37.644;2022-07-05T18:22:29;12.65;;;10.80;;
39050;SDS011;24805;55.852;37.644;2022-07-05T18:27:31;11.45;;;10.18;;
39050;SDS011;24805;55.852;37.644;2022-07-05T18:32:33;13.40;;;10.85;;
39050;SDS011;24805;55.852;37.644;2022-07-05T18:37:41;11.57;;;10.38;;
39050;SDS011;24805;55.852;37.644;2022-07-05T18:42:44;12.45;;;11.15;;
39050;SDS011;24805;55.852;37.644;2022-07-05T18:47:46;12.43;;;10.20;;
39050;SDS011;24805;55.852;37.644;2022-07-05T18:52:48;10.88;;;9.77;;
39050;SDS011;24805;55.852;37.644;2022-07-05T18:57:51;20.88;;;15.70;;
39050;SDS011;24805;55.852;37.644;2022-07-05T19:02:53;14.52;;;11.10;;
39050;SDS011;24805;55.852;37.644;2022-07-05T19:08:00;25.17;;;20.27;;
39050;SDS011;24805;55.852;37.644;2022-07-05T19:13:20;20.42;;;16.52;;
39050;SDS011;24805;55.852;37.644;2022-07-05T19:18:41;16.70;;;14.43;;
39050;SDS011;24805;55.852;37.644;2022-07-05T19:23:43;17.65;;;13.82;;
39050;SDS011;24805;55.852;37.644;2022-07-05T19:28:46;15.75;;;13.30;;
39050;SDS011;24805;55.852;37.644;2022-07-05T19:33:48;14.52;;;11.15;;
39050;SDS011;24805;55.852;37.644;2022-07-05T19:38:50;15.25;;;11.15;;
39050;SDS011;24805;55.852;37.644;2022-07-05T19:43:52;11.70;;;10.40;;
39050;SDS011;24805;55.852;37.644;2022-07-05T19:48:55;13.63;;;11.02;;
39050;SDS011;24805;55.852;37.644;2022-07-05T19:53:57;17.55;;;11.70;;
39050;SDS011;24805;55.852;37.644;2022-07-05T19:58:59;15.50;;;11.70;;
39050;SDS011;24805;55.852;37.644;2022-07-05T20:04:03;12.38;;;10.48;;
39050;SDS011;24805;55.852;37.644;2022-07-05T20:09:11;13.65;;;11.77;;
39050;SDS011;24805;55.852;37.644;2022-07-05T20:14:13;15.07;;;11.45;;
39050;SDS011;24805;55.852;37.644;2022-07-05T20:19:19;13.80;;;10.50;;
39050;SDS011;24805;55.852;37.644;2022-07-05T20:24:21;13.07;;;11.60;;
39050;SDS011;24805;55.852;37.644;2022-07-05T20:29:23;12.23;;;10.82;;
39050;SDS011;24805;55.852;37.644;2022-07-05T20:34:28;18.42;;;12.30;;
39050;SDS011;24805;55.852;37.644;2022-07-05T20:39:31;23.42;;;18.40;;
39050;SDS011;24805;55.852;37.644;2022-07-05T20:44:33;16.55;;;12.90;;
39050;SDS011;24805;55.852;37.644;2022-07-05T20:49:36;15.57;;;11.65;;
39050;SDS011;24805;55.852;37.644;2022-07-05T20:54:38;21.20;;;13.88;;
39050;SDS011;24805;55.852;37.644;2022-07-05T20:59:40;13.65;;;11.85;;
39050;SDS011;24805;55.852;37.644;2022-07-05T21:04:42;14.43;;;12.60;;
39050;SDS011;24805;55.852;37.644;2022-07-05T21:09:45;17.65;;;12.32;;
39050;SDS011;24805;55.852;37.644;2022-07-05T21:14:47;15.82;;;12.82;;
39050;SDS011;24805;55.852;37.644;2022-07-05T21:19:49;17.70;;;15.75;;
39050;SDS011;24805;55.852;37.644;2022-07-05T21:24:52;17.35;;;12.75;;
39050;SDS011;24805;55.852;37.644;2022-07-05T21:29:54;14.82;;;12.88;;
39050;SDS011;24805;55.852;37.644;2022-07-05T21:34:56;25.90;;;19.95;;
39050;SDS011;24805;55.852;37.644;2022-07-05T21:39:58;18.83;;;12.88;;
39050;SDS011;24805;55.852;37.644;2022-07-05T21:45:00;18.20;;;14.90;;
39050;SDS011;24805;55.852;37.644;2022-07-05T21:50:04;20.73;;;14.73;;
39050;SDS011;24805;55.852;37.644;2022-07-05T21:55:07;20.88;;;15.88;;
39050;SDS011;24805;55.852;37.644;2022-07-05T22:00:19;20.40;;;16.52;;
39050;SDS011;24805;55.852;37.644;2022-07-05T22:05:41;21.05;;;16.63;;
39050;SDS011;24805;55.852;37.644;2022-07-05T22:10:43;22.38;;;18.50;;
39050;SDS011;24805;55.852;37.644;2022-07-05T22:15:45;17.70;;;15.70;;
39050;SDS011;24805;55.852;37.644;2022-07-05T22:20:48;23.65;;;21.10;;
39050;SDS011;24805;55.852;37.644;2022-07-05T22:25:50;17.65;;;15.77;;
39050;SDS011;24805;55.852;37.644;2022-07-05T22:30:52;22.40;;;18.90;;
39050;SDS011;24805;55.852;37.644;2022-07-05T22:35:54;20.02;;;16.02;;
39050;SDS011;24805;55.852;37.644;2022-07-05T22:40:57;18.38;;;16.10;;
39050;SDS011;24805;55.852;37.644;2022-07-05T22:45:59;20.17;;;18.08;;
39050;SDS011;24805;55.852;37.644;2022-07-05T22:51:02;18.45;;;16.52;;
39050;SDS011;24805;55.852;37.644;2022-07-05T22:56:05;20.48;;;17.40;;
39050;SDS011;24805;55.852;37.644;2022-07-05T23:01:07;23.27;;;19.13;;
39050;SDS011;24805;55.852;37.644;2022-07-05T23:06:09;21.27;;;17.83;;
39050;SDS011;24805;55.852;37.644;2022-07-05T23:11:11;20.92;;;18.73;;
39050;SDS011;24805;55.852;37.644;2022-07-05T23:16:14;20.33;;;18.38;;
39050;SDS011;24805;55.852;37.644;2022-07-05T23:21:16;21.85;;;19.65;;
39050;SDS011;24805;55.852;37.644;2022-07-05T23:26:19;21.63;;;19.45;;
39050;SDS011;24805;55.852;37.644;2022-07-05T23:31:21;23.25;;;21.08;;
39050;SDS011;24805;55.852;37.644;2022-07-05T23:36:23;22.42;;;20.15;;
39050;SDS011;24805;55.852;37.644;2022-07-05T23:41:25;23.17;;;20.73;;
39050;SDS011;24805;55.852;37.644;2022-07-05T23:46:28;23.90;;;21.20;;
39050;SDS011;24805;55.852;37.644;2022-07-05T23:51:30;24.35;;;21.73;;
39050;SDS011;24805;55.852;37.644;2022-07-05T23:56:32;24.58;;;20.58;;
